createdAt,value
2023-01-20T00:02:11.286Z,61.38
2023-01-20T00:07:14.106Z,56.08
2023-01-20T00:12:16.696Z,56.28
2023-01-20T00:17:19.175Z,61.35
2023-01-20T00:22:22.497Z,59.88
2023-01-20T00:27:25.118Z,54.35
2023-01-20T00:32:27.808Z,58.28
2023-01-20T00:37:30.326Z,58.22
2023-01-20T00:42:32.918Z,57.15
2023-01-20T00:47:35.675Z,55.10
2023-01-20T00:52:38.227Z,52.88
2023-01-20T00:57:41.014Z,59.70
2023-01-20T01:02:43.553Z,57.28
2023-01-20T01:07:46.148Z,57.72
2023-01-20T01:12:48.661Z,52.17
2023-01-20T01:17:52.451Z,55.17
2023-01-20T01:22:56.306Z,55.65
2023-01-20T01:27:58.837Z,52.15
2023-01-20T01:33:01.547Z,48.22
2023-01-20T01:38:04.095Z,54.95
2023-01-20T01:43:23.372Z,51.08
2023-01-20T01:48:40.341Z,47.67
2023-01-20T01:53:54.033Z,47.55
2023-01-20T01:59:00.143Z,48.70
2023-01-20T02:04:11.531Z,45.10
2023-01-20T02:09:14.489Z,54.58
2023-01-20T02:14:19.382Z,49.95
2023-01-20T02:19:37.031Z,47.58
2023-01-20T02:25:13.443Z,45.72
2023-01-20T02:30:25.157Z,45.20
2023-01-20T02:35:45.991Z,50.75
2023-01-20T02:40:48.473Z,41.55
2023-01-20T02:46:06.306Z,48.30
2023-01-20T02:51:18.356Z,48.03
2023-01-20T02:56:37.180Z,46.25
2023-01-20T03:02:02.680Z,44.70
2023-01-20T03:07:07.318Z,44.92
2023-01-20T03:12:17.048Z,46.80
2023-01-20T03:17:20.840Z,46.53
2023-01-20T03:22:23.721Z,44.97
2023-01-20T03:27:26.918Z,43.50
2023-01-20T03:32:30.036Z,43.15
2023-01-20T03:37:32.698Z,41.78
2023-01-20T03:42:46.282Z,42.88
2023-01-20T03:47:58.748Z,43.17
2023-01-20T03:53:15.396Z,47.85
2023-01-20T03:58:40.962Z,42.35
2023-01-20T04:03:46.168Z,39.92
2023-01-20T04:08:57.068Z,49.88
2023-01-20T04:14:00.045Z,45.20
2023-01-20T04:19:02.797Z,45.85
2023-01-20T04:24:34.800Z,42.95
2023-01-20T04:29:37.509Z,42.53
2023-01-20T04:34:40.258Z,42.13
2023-01-20T04:39:43.038Z,43.88
2023-01-20T04:44:46.313Z,43.47
2023-01-20T04:49:49.003Z,40.58
2023-01-20T04:54:51.588Z,42.13
2023-01-20T04:59:54.141Z,44.03
2023-01-20T05:04:56.771Z,41.53
2023-01-20T05:09:59.437Z,41.30
2023-01-20T05:15:02.201Z,44.63
2023-01-20T05:20:05.979Z,38.67
2023-01-20T05:25:09.177Z,40.58
2023-01-20T05:30:12.090Z,38.30
2023-01-20T05:35:14.995Z,42.10
2023-01-20T05:40:18.461Z,45.83
2023-01-20T05:45:21.031Z,41.40
2023-01-20T05:50:24.262Z,39.85
2023-01-20T05:55:27.185Z,45.03
2023-01-20T06:00:30.429Z,44.00
2023-01-20T06:05:33.497Z,46.78
2023-01-20T06:10:36.055Z,40.45
2023-01-20T06:15:38.598Z,42.03
2023-01-20T06:20:41.170Z,42.35
2023-01-20T06:25:44.111Z,42.58
2023-01-20T06:30:46.648Z,41.15
2023-01-20T06:35:49.359Z,45.70
2023-01-20T06:40:59.677Z,38.90
2023-01-20T06:46:04.283Z,39.60
2023-01-20T06:51:17.073Z,38.70
2023-01-20T06:56:20.126Z,38.38
2023-01-20T07:01:31.417Z,37.22
2023-01-20T07:06:38.591Z,41.85
2023-01-20T07:11:41.526Z,41.13
2023-01-20T07:16:44.234Z,46.67
2023-01-20T07:21:46.922Z,43.10
2023-01-20T07:26:52.762Z,44.20
2023-01-20T07:31:55.561Z,43.53
2023-01-20T07:36:58.165Z,40.20
2023-01-20T07:42:00.668Z,47.03
2023-01-20T07:47:03.332Z,36.42
2023-01-20T07:52:05.885Z,42.95
2023-01-20T07:57:09.325Z,41.30
2023-01-20T08:02:11.890Z,47.22
2023-01-20T08:07:14.417Z,43.13
2023-01-20T08:12:17.090Z,40.55
2023-01-20T08:17:19.708Z,42.45
2023-01-20T08:22:22.277Z,43.75
2023-01-20T08:27:24.849Z,43.58
2023-01-20T08:32:27.447Z,43.25
2023-01-20T08:37:30.022Z,45.58
2023-01-20T08:42:32.615Z,43.00
2023-01-20T08:47:44.519Z,41.67
2023-01-20T08:52:47.494Z,43.75
2023-01-20T08:57:50.047Z,48.53
2023-01-20T09:02:52.929Z,45.20
2023-01-20T09:07:55.554Z,43.90
2023-01-20T09:12:58.122Z,41.90
2023-01-20T09:18:00.753Z,40.65
2023-01-20T09:23:03.474Z,44.83
2023-01-20T09:28:06.714Z,44.22
2023-01-20T09:33:13.995Z,42.03
2023-01-20T09:38:35.430Z,44.80
2023-01-20T09:43:57.066Z,31.80
2023-01-20T09:49:39.144Z,47.85
2023-01-20T09:54:50.496Z,46.88
2023-01-20T10:00:09.526Z,41.85
2023-01-20T10:05:16.817Z,41.13
2023-01-20T10:10:32.891Z,36.15
2023-01-20T10:15:37.779Z,40.22
2023-01-20T10:20:49.304Z,42.97
2023-01-20T10:26:00.805Z,43.67
2023-01-20T10:31:05.410Z,30.08
2023-01-20T10:36:21.443Z,37.95
2023-01-20T10:41:32.366Z,40.22
2023-01-20T10:46:47.055Z,39.50
2023-01-20T10:52:09.992Z,37.92
2023-01-20T10:57:15.432Z,35.55
2023-01-20T11:02:30.699Z,33.95
2023-01-20T11:07:34.278Z,37.88
2023-01-20T11:12:40.884Z,41.95
2023-01-20T11:17:43.572Z,39.47
2023-01-20T11:22:48.951Z,39.17
2023-01-20T11:27:52.391Z,34.08
2023-01-20T11:33:10.242Z,33.75
2023-01-20T11:38:31.161Z,36.78
2023-01-20T11:43:38.157Z,35.40
2023-01-20T11:48:40.839Z,36.80
2023-01-20T11:53:45.745Z,35.20
2023-01-20T11:58:59.855Z,34.70
2023-01-20T12:04:17.687Z,35.03
2023-01-20T12:09:25.843Z,37.90
2023-01-20T12:14:42.757Z,32.92
2023-01-20T12:19:51.325Z,34.20
2023-01-20T12:25:07.907Z,38.42
2023-01-20T12:30:43.325Z,33.58
2023-01-20T12:36:14.695Z,39.58
2023-01-20T12:41:45.451Z,31.60
2023-01-20T12:46:51.929Z,35.45
2023-01-20T12:52:31.235Z,37.55
2023-01-20T12:58:00.118Z,28.92
2023-01-20T13:03:27.542Z,35.42
2023-01-20T13:08:39.926Z,32.78
2023-01-20T13:13:57.348Z,34.78
2023-01-20T13:19:14.595Z,35.30
2023-01-20T13:24:24.410Z,37.42
2023-01-20T13:29:36.026Z,36.65
2023-01-20T13:34:40.149Z,29.77
2023-01-20T13:39:45.651Z,40.53
2023-01-20T13:45:21.030Z,36.28
2023-01-20T13:50:26.514Z,36.13
2023-01-20T13:55:40.903Z,29.67
2023-01-20T14:00:44.568Z,26.88
2023-01-20T14:05:55.617Z,31.33
2023-01-20T14:11:41.174Z,32.43
2023-01-20T14:16:44.525Z,29.75
2023-01-20T14:21:53.238Z,34.83
2023-01-20T14:27:27.168Z,38.30
2023-01-20T14:32:33.993Z,37.55
2023-01-20T14:37:38.616Z,33.40
2023-01-20T14:42:41.189Z,39.72
2023-01-20T14:47:43.783Z,37.35
2023-01-20T14:52:46.561Z,33.45
2023-01-20T14:57:49.196Z,40.22
2023-01-20T15:03:10.174Z,38.88
2023-01-20T15:13:31.211Z,32.08
2023-01-20T15:18:34.100Z,37.35
2023-01-20T15:23:38.405Z,39.63
2023-01-20T15:28:44.932Z,29.17
2023-01-20T15:33:47.751Z,28.80
2023-01-20T15:38:50.841Z,29.27
2023-01-20T15:43:53.420Z,32.90
2023-01-20T15:48:56.168Z,33.75
2023-01-20T15:53:59.100Z,31.48
2023-01-20T15:59:02.788Z,28.15
2023-01-20T16:04:05.483Z,25.52
2023-01-20T16:09:30.513Z,25.55
2023-01-20T16:14:33.560Z,25.67
2023-01-20T16:19:36.500Z,29.35
2023-01-20T16:24:39.851Z,24.85
2023-01-20T16:29:42.511Z,26.00
2023-01-20T16:34:46.179Z,28.00
2023-01-20T16:39:48.779Z,26.27
2023-01-20T16:44:52.796Z,24.40
2023-01-20T16:49:55.345Z,24.60
2023-01-20T16:54:58.040Z,29.83
2023-01-20T17:00:00.649Z,24.08
2023-01-20T17:05:03.360Z,26.52
2023-01-20T17:10:06.570Z,29.58
2023-01-20T17:15:09.997Z,26.08
2023-01-20T17:20:12.764Z,27.65
2023-01-20T17:25:17.933Z,27.40
2023-01-20T17:30:20.739Z,33.10
2023-01-20T17:35:23.367Z,27.60
2023-01-20T17:40:25.999Z,27.05
2023-01-20T17:45:30.726Z,29.75
2023-01-20T17:50:39.794Z,26.23
2023-01-20T17:55:43.235Z,25.48
2023-01-20T18:00:45.872Z,29.17
2023-01-20T18:05:48.449Z,25.20
2023-01-20T18:10:50.987Z,27.52
2023-01-20T18:15:53.658Z,27.98
2023-01-20T18:20:56.229Z,32.00
2023-01-20T18:25:58.859Z,30.38
2023-01-20T18:31:08.506Z,28.60
2023-01-20T18:36:14.787Z,33.20
2023-01-20T18:41:17.693Z,32.28
2023-01-20T18:46:20.554Z,33.25
2023-01-20T18:51:25.962Z,25.45
2023-01-20T18:56:29.974Z,31.40
2023-01-20T19:01:36.213Z,33.13
2023-01-20T19:06:42.034Z,40.03
2023-01-20T19:11:44.638Z,27.77
2023-01-20T19:16:49.515Z,35.00
2023-01-20T19:21:52.693Z,31.33
2023-01-20T19:26:55.368Z,31.25
2023-01-20T19:31:58.011Z,33.40
2023-01-20T19:37:00.760Z,32.63
2023-01-20T19:42:03.397Z,33.17
2023-01-20T19:47:05.945Z,31.95
2023-01-20T19:52:08.496Z,31.17
2023-01-20T19:57:11.083Z,32.92
2023-01-20T20:02:13.646Z,29.33
2023-01-20T20:07:16.220Z,33.28
2023-01-20T20:12:18.799Z,35.55
2023-01-20T20:17:21.448Z,33.35
2023-01-20T20:22:24.158Z,37.97
2023-01-20T20:27:34.386Z,31.00
2023-01-20T20:32:37.088Z,33.80
2023-01-20T20:37:39.871Z,37.80
2023-01-20T20:42:43.139Z,35.60
2023-01-20T20:47:45.711Z,34.30
2023-01-20T20:52:48.309Z,38.50
2023-01-20T20:57:51.171Z,35.70
2023-01-20T21:02:55.389Z,34.00
2023-01-20T21:07:58.015Z,36.22
2023-01-20T21:13:00.569Z,36.47
2023-01-20T21:18:04.139Z,39.55
2023-01-20T21:23:06.751Z,34.35
2023-01-20T21:28:10.034Z,41.00
2023-01-20T21:33:17.695Z,36.40
2023-01-20T21:38:20.354Z,38.08
2023-01-20T21:43:41.325Z,33.85
2023-01-20T21:49:02.501Z,26.23
2023-01-20T21:54:05.133Z,29.77
2023-01-20T21:59:07.962Z,36.22
2023-01-20T22:04:10.818Z,38.58
2023-01-20T22:09:13.467Z,35.65
2023-01-20T22:14:16.089Z,39.88
2023-01-20T22:19:18.649Z,36.63
2023-01-20T22:24:21.562Z,36.10
2023-01-20T22:29:24.688Z,33.08
2023-01-20T22:34:29.233Z,36.70
2023-01-20T22:39:31.791Z,38.47
2023-01-20T22:44:34.301Z,34.33
2023-01-20T22:49:36.957Z,34.70
2023-01-20T22:54:39.474Z,40.88
2023-01-20T22:59:42.174Z,39.78
2023-01-20T23:04:44.781Z,37.53
2023-01-20T23:09:47.345Z,32.90
2023-01-20T23:14:59.069Z,35.72
2023-01-20T23:20:01.634Z,35.97
2023-01-20T23:25:08.564Z,36.80
2023-01-20T23:30:11.562Z,39.55
2023-01-20T23:35:14.291Z,34.22
2023-01-20T23:40:18.577Z,30.67
2023-01-20T23:45:21.391Z,36.28
2023-01-20T23:50:23.957Z,30.77
2023-01-20T23:55:26.528Z,29.27
